Time;durP1;ratioP1;P1;durP2;ratioP2;P2;SDS_P1;SDS_P2;PMS_P1;PMS_P2;Temp;Humidity;BMP_temperature;BMP_pressure;BME280_temperature;BME280_humidity;BME280_pressure;Samples;Min_cycle;Max_cycle;Signal;HPM_P1;HPM_P2
2022/08/08 00:01:48;;;;;;;3.60;2.67;;;19.00;54.80;;;;;;5007578;28;20423;-72
2022/08/08 00:04:48;;;;;;;4.63;2.30;;;19.00;54.80;;;;;;5005605;28;20417;-72
2022/08/08 00:07:42;;;;;;;2.80;2.00;;;19.00;55.00;;;;;;4988720;28;20538;-74
2022/08/08 00:10:18;;;;;;;5.30;2.40;;;19.00;55.00;;;;;;5013452;28;20436;-72
2022/08/08 00:12:50;;;;;;;4.00;2.70;;;18.90;55.40;;;;;;5014664;28;21236;-70
2022/08/08 00:15:20;;;;;;;3.53;2.30;;;18.80;55.70;;;;;;5013881;28;21757;-71
2022/08/08 00:18:04;;;;;;;4.13;2.30;;;18.70;56.20;;;;;;5011634;28;20422;-69
2022/08/08 00:20:41;;;;;;;4.67;2.40;;;18.60;56.50;;;;;;5001315;28;20469;-72
2022/08/08 00:23:15;;;;;;;3.10;2.17;;;18.50;56.80;;;;;;5008978;28;20439;-70
2022/08/08 00:25:45;;;;;;;2.20;1.87;;;18.40;57.20;;;;;;5009759;28;20550;-70
2022/08/08 00:28:14;;;;;;;2.97;2.10;;;18.30;57.60;;;;;;5014797;28;20474;-73
2022/08/08 00:30:49;;;;;;;3.37;1.70;;;18.40;55.40;;;;;;5013797;28;20452;-71
2022/08/08 00:33:18;;;;;;;2.27;1.90;;;18.40;54.90;;;;;;5017844;28;20431;-70
2022/08/08 00:36:07;;;;;;;4.17;2.10;;;18.40;54.80;;;;;;5013787;28;21467;-72
2022/08/08 00:38:55;;;;;;;2.53;2.00;;;18.40;55.00;;;;;;5016999;28;20427;-70
2022/08/08 00:41:32;;;;;;;2.70;1.97;;;18.50;54.60;;;;;;4994298;28;20854;-70
2022/08/08 00:44:18;;;;;;;2.83;2.10;;;18.50;54.10;;;;;;4998904;28;20940;-70
2022/08/08 00:47:14;;;;;;;3.20;2.57;;;18.60;53.80;;;;;;5008303;28;20479;-71
2022/08/08 00:49:58;;;;;;;4.37;2.47;;;18.50;54.10;;;;;;5014328;28;20444;-71
2022/08/08 00:52:34;;;;;;;3.43;2.73;;;18.60;54.00;;;;;;5011075;28;20428;-70
2022/08/08 00:55:53;;;;;;;2.43;2.10;;;18.70;54.00;;;;;;5018132;28;20804;-71
2022/08/08 00:58:45;;;;;;;2.30;1.90;;;18.70;53.60;;;;;;4911754;29;20450;-71
2022/08/08 01:01:33;;;;;;;3.40;2.53;;;18.60;53.80;;;;;;4922130;29;20490;-70
2022/08/08 01:04:19;;;;;;;4.10;2.47;;;18.50;54.10;;;;;;4921407;29;20501;-73
2022/08/08 01:07:18;;;;;;;3.47;2.63;;;18.50;54.20;;;;;;4928145;29;20620;-71
2022/08/08 01:09:49;;;;;;;4.53;2.47;;;18.50;54.10;;;;;;4933885;29;20433;-72
2022/08/08 01:12:36;;;;;;;3.33;2.10;;;18.50;54.00;;;;;;4930579;29;20446;-71
2022/08/08 01:15:41;;;;;;;2.00;1.70;;;18.50;55.30;;;;;;4927540;29;20864;-71
2022/08/08 01:18:19;;;;;;;2.83;1.93;;;18.40;56.00;;;;;;4926691;29;20422;-70
2022/08/08 01:21:06;;;;;;;2.70;2.07;;;18.40;55.70;;;;;;4930281;29;21008;-70
2022/08/08 01:23:55;;;;;;;5.20;2.43;;;18.40;55.20;;;;;;4931593;29;20431;-72
2022/08/08 01:27:01;;;;;;;4.53;2.50;;;18.30;55.60;;;;;;4942056;29;20528;-73
2022/08/08 01:30:00;;;;;;;4.17;2.50;;;18.20;56.20;;;;;;5006354;28;20982;-71
2022/08/08 01:32:45;;;;;;;2.83;2.00;;;18.10;58.40;;;;;;5021560;28;20426;-70
2022/08/08 01:35:27;;;;;;;2.20;1.93;;;18.20;57.60;;;;;;5009626;28;20970;-73
2022/08/08 01:38:20;;;;;;;3.47;2.10;;;18.20;56.20;;;;;;5015569;28;20547;-72
2022/08/08 01:40:51;;;;;;;3.23;2.00;;;18.10;57.40;;;;;;5024233;28;20464;-70
2022/08/08 01:43:41;;;;;;;4.87;2.40;;;18.10;58.40;;;;;;5026455;28;20441;-71
2022/08/08 01:46:47;;;;;;;3.27;2.10;;;18.00;58.50;;;;;;5017395;28;20495;-70
2022/08/08 01:49:32;;;;;;;5.30;2.57;;;17.90;58.70;;;;;;4999639;28;20430;-73
2022/08/08 01:52:23;;;;;;;2.93;2.17;;;17.80;59.30;;;;;;5014577;28;20430;-70
2022/08/08 01:55:07;;;;;;;3.33;2.20;;;17.80;59.70;;;;;;4966185;28;20426;-71
2022/08/08 01:57:41;;;;;;;3.20;2.53;;;17.70;60.00;;;;;;5019498;28;20428;-71
2022/08/08 02:00:18;;;;;;;4.50;2.50;;;17.60;60.70;;;;;;5020739;28;20594;-72
2022/08/08 02:02:56;;;;;;;3.33;2.37;;;17.40;61.20;;;;;;5010094;28;20828;-71
2022/08/08 02:05:32;;;;;;;3.43;2.00;;;17.20;61.60;;;;;;5010715;28;20456;-71
2022/08/08 02:08:36;;;;;;;3.70;2.20;;;17.20;62.20;;;;;;5014241;28;20433;-73
2022/08/08 02:11:08;;;;;;;3.57;2.33;;;17.20;62.50;;;;;;5029686;28;20427;-73
2022/08/08 02:13:58;;;;;;;4.10;2.60;;;17.10;62.30;;;;;;5021830;28;20969;-73
2022/08/08 02:16:33;;;;;;;2.90;2.30;;;17.10;62.20;;;;;;5014543;28;20452;-72
2022/08/08 02:19:01;;;;;;;3.00;1.93;;;17.10;61.90;;;;;;5014747;28;20416;-73
2022/08/08 02:22:39;;;;;;;5.60;2.40;;;17.10;61.90;;;;;;5012340;28;20446;-74
2022/08/08 02:24:58;;;;;;;3.67;2.30;;;17.10;60.90;;;;;;4997825;28;20825;-72
2022/08/08 02:27:33;;;;;;;2.57;2.20;;;17.10;59.90;;;;;;5020199;28;20816;-71
2022/08/08 02:30:31;;;;;;;1.83;1.70;;;17.10;59.30;;;;;;5018905;28;20434;-73
2022/08/08 02:33:18;;;;;;;3.00;1.97;;;17.20;59.20;;;;;;4981169;28;20477;-72
2022/08/08 02:36:11;;;;;;;2.87;2.30;;;17.10;59.90;;;;;;5008215;28;21211;-73
2022/08/08 02:38:47;;;;;;;3.37;2.13;;;17.10;60.30;;;;;;5018770;28;20441;-71
2022/08/08 02:41:21;;;;;;;3.73;2.63;;;17.30;61.70;;;;;;5007319;28;20429;-71
2022/08/08 02:43:56;;;;;;;2.60;2.03;;;17.20;62.00;;;;;;5012639;28;20920;-72
2022/08/08 02:46:40;;;;;;;5.27;2.73;;;17.00;62.50;;;;;;5008113;28;20463;-71
2022/08/08 02:49:13;;;;;;;3.53;2.47;;;16.90;63.10;;;;;;5015605;28;20510;-70
2022/08/08 02:51:55;;;;;;;3.33;2.17;;;16.70;63.90;;;;;;5001761;28;20440;-71
2022/08/08 02:54:48;;;;;;;3.80;2.50;;;16.70;64.10;;;;;;5016078;28;20447;-71
2022/08/08 02:57:23;;;;;;;2.00;1.83;;;16.60;64.40;;;;;;5010781;28;20477;-70
2022/08/08 03:00:22;;;;;;;4.30;2.60;;;16.60;64.10;;;;;;5022503;28;20470;-71
2022/08/08 03:03:02;;;;;;;4.67;2.40;;;16.70;63.50;;;;;;5014332;28;20413;-70
2022/08/08 03:05:55;;;;;;;3.10;2.00;;;16.70;63.70;;;;;;4994787;28;20464;-70
2022/08/08 03:08:41;;;;;;;3.00;2.27;;;16.70;63.70;;;;;;5014120;28;20938;-71
2022/08/08 03:11:39;;;;;;;3.03;2.23;;;16.60;63.70;;;;;;5012159;28;20842;-71
2022/08/08 03:14:46;;;;;;;2.87;2.10;;;16.60;62.90;;;;;;4976931;28;20524;-71
2022/08/08 03:17:14;;;;;;;3.47;2.47;;;16.60;62.80;;;;;;5010412;28;20475;-70
2022/08/08 03:20:21;;;;;;;2.33;1.83;;;16.70;62.60;;;;;;5010086;28;20812;-70
2022/08/08 03:22:51;;;;;;;3.80;2.20;;;16.70;61.90;;;;;;5007156;28;20420;-70
2022/08/08 03:25:21;;;;;;;3.37;2.37;;;16.70;61.90;;;;;;5004292;28;21477;-71
2022/08/08 03:27:58;;;;;;;4.63;2.17;;;16.70;62.90;;;;;;5017502;28;20420;-71
2022/08/08 03:30:24;;;;;;;3.50;2.27;;;16.70;63.80;;;;;;5021423;28;20439;-71
2022/08/08 03:35:40;;;;;;;4.13;2.80;;;16.80;63.50;;;;;;5007852;28;20533;-71
2022/08/08 03:38:07;;;;;;;3.43;2.60;;;16.80;63.80;;;;;;5020327;28;20421;-71
2022/08/08 03:40:33;;;;;;;3.80;2.30;;;16.80;63.80;;;;;;5020896;28;20468;-71
2022/08/08 03:42:59;;;;;;;3.83;2.17;;;16.90;63.20;;;;;;5014078;28;20788;-71
2022/08/08 03:45:27;;;;;;;2.43;2.13;;;16.80;63.20;;;;;;5010695;28;20310;-70
2022/08/08 03:47:58;;;;;;;3.83;2.33;;;16.70;63.40;;;;;;5013580;28;20428;-73
2022/08/08 03:50:25;;;;;;;2.70;2.10;;;16.80;63.80;;;;;;5019474;28;20450;-70
2022/08/08 03:52:51;;;;;;;6.37;2.97;;;16.80;63.80;;;;;;5017618;28;20437;-71
2022/08/08 03:55:19;;;;;;;3.30;2.23;;;16.70;64.20;;;;;;5009153;28;20632;-71
2022/08/08 03:57:50;;;;;;;4.13;2.50;;;16.70;64.20;;;;;;5010631;28;20440;-71
2022/08/08 04:00:17;;;;;;;3.00;2.50;;;16.70;64.20;;;;;;5015496;28;20657;-72
2022/08/08 04:02:52;;;;;;;3.87;2.20;;;16.60;64.50;;;;;;5020599;28;20439;-72
2022/08/08 04:05:18;;;;;;;5.37;2.87;;;16.60;64.70;;;;;;5007192;28;20501;-71
2022/08/08 04:07:43;;;;;;;4.00;2.60;;;16.60;64.10;;;;;;5009937;28;20952;-70
2022/08/08 04:10:09;;;;;;;3.10;2.47;;;16.60;64.40;;;;;;5014940;28;20208;-71
2022/08/08 04:12:35;;;;;;;3.00;2.27;;;16.60;65.00;;;;;;5011697;28;20670;-70
2022/08/08 04:15:01;;;;;;;2.90;2.30;;;16.60;65.40;;;;;;5013374;28;20613;-73
2022/08/08 04:17:26;;;;;;;3.47;2.50;;;16.40;66.10;;;;;;5013288;28;20194;-71
2022/08/08 04:19:52;;;;;;;3.53;2.80;;;16.20;66.70;;;;;;4994880;28;20480;-71
2022/08/08 04:22:18;;;;;;;4.03;2.20;;;16.20;66.90;;;;;;5012796;28;20186;-71
2022/08/08 04:24:43;;;;;;;3.23;2.40;;;16.20;67.00;;;;;;5016491;28;20296;-71
2022/08/08 04:27:09;;;;;;;3.23;2.23;;;16.20;66.90;;;;;;5007412;28;20224;-71
2022/08/08 04:29:34;;;;;;;3.53;2.40;;;16.20;67.00;;;;;;5013910;28;20207;-72
2022/08/08 04:32:00;;;;;;;3.80;2.60;;;16.10;67.30;;;;;;5013573;28;20186;-71
2022/08/08 04:34:26;;;;;;;4.43;3.00;;;16.10;67.60;;;;;;5016248;28;20759;-71
2022/08/08 04:36:52;;;;;;;4.27;2.93;;;16.10;67.60;;;;;;5008042;28;20206;-71
2022/08/08 04:39:17;;;;;;;3.70;2.70;;;16.00;67.60;;;;;;5021690;28;21007;-71
2022/08/08 04:41:43;;;;;;;3.57;2.80;;;16.10;67.60;;;;;;5013967;28;20178;-71
2022/08/08 04:44:09;;;;;;;2.63;2.40;;;16.10;67.60;;;;;;5003594;28;20186;-72
2022/08/08 04:46:34;;;;;;;4.23;2.50;;;16.20;67.50;;;;;;5015445;28;20666;-71
2022/08/08 04:49:00;;;;;;;4.10;2.80;;;16.20;67.60;;;;;;5009620;28;20205;-71
2022/08/08 04:51:26;;;;;;;3.03;2.33;;;16.20;67.60;;;;;;5014109;28;20189;-70
2022/08/08 04:53:51;;;;;;;3.10;2.60;;;16.30;67.20;;;;;;5016161;28;20188;-71
2022/08/08 04:56:17;;;;;;;5.07;2.70;;;16.30;66.60;;;;;;5006453;28;20209;-71
2022/08/08 04:58:43;;;;;;;4.67;2.60;;;16.20;67.20;;;;;;5005997;28;20192;-71
2022/08/08 05:01:09;;;;;;;4.10;2.77;;;16.30;67.20;;;;;;5016601;28;20539;-70
2022/08/08 05:03:34;;;;;;;3.40;2.47;;;16.40;66.00;;;;;;5012904;28;20632;-71
2022/08/08 05:06:00;;;;;;;4.60;2.70;;;16.40;66.40;;;;;;5008408;28;20212;-70
2022/08/08 05:08:26;;;;;;;7.40;3.47;;;16.50;66.00;;;;;;5010980;28;20188;-71
2022/08/08 05:10:52;;;;;;;6.27;2.87;;;16.60;66.30;;;;;;4996557;28;20189;-72
2022/08/08 05:13:18;;;;;;;4.17;2.60;;;16.50;66.30;;;;;;5016635;28;20185;-70
2022/08/08 05:15:43;;;;;;;6.10;2.50;;;16.60;66.60;;;;;;5009555;28;21185;-71
2022/08/08 05:18:09;;;;;;;4.80;3.20;;;16.60;66.90;;;;;;5010078;28;20236;-71
2022/08/08 05:20:34;;;;;;;7.50;2.90;;;16.60;66.90;;;;;;5016826;28;20204;-71
2022/08/08 05:23:00;;;;;;;4.50;2.77;;;16.80;66.00;;;;;;5013242;28;20549;-71
2022/08/08 05:25:26;;;;;;;8.07;3.10;;;16.80;66.10;;;;;;4993041;28;20215;-70
2022/08/08 05:27:52;;;;;;;5.80;3.00;;;16.80;66.30;;;;;;5011228;28;20214;-72
2022/08/08 05:30:18;;;;;;;4.13;2.77;;;16.80;66.90;;;;;;5017847;28;20207;-72
2022/08/08 05:32:44;;;;;;;3.70;2.80;;;16.90;66.70;;;;;;5015827;28;20514;-72
2022/08/08 05:35:12;;;;;;;3.83;2.57;;;17.00;66.70;;;;;;5008477;28;20922;-72
2022/08/08 05:37:51;;;;;;;3.10;2.57;;;17.00;66.40;;;;;;5011726;28;20567;-72
2022/08/08 05:40:16;;;;;;;6.37;3.20;;;17.10;65.80;;;;;;5011724;28;20851;-72
2022/08/08 05:42:44;;;;;;;4.63;3.00;;;17.20;65.60;;;;;;5007348;28;20471;-71
2022/08/08 05:45:12;;;;;;;4.20;2.80;;;17.30;65.30;;;;;;5016596;28;20245;-72
2022/08/08 05:47:39;;;;;;;4.40;3.40;;;17.40;64.80;;;;;;4990150;28;20417;-73
2022/08/08 05:50:05;;;;;;;4.27;3.00;;;17.50;64.40;;;;;;5012432;28;20529;-73
2022/08/08 05:52:36;;;;;;;3.70;2.83;;;17.50;64.10;;;;;;5016748;28;20430;-71
2022/08/08 05:55:10;;;;;;;3.73;2.53;;;17.50;64.50;;;;;;5017523;28;20812;-71
2022/08/08 05:57:37;;;;;;;3.70;3.00;;;17.50;64.70;;;;;;5010999;28;20491;-73
2022/08/08 06:00:09;;;;;;;5.87;3.47;;;17.60;64.80;;;;;;5017528;28;20472;-72
2022/08/08 06:05:20;;;;;;;4.47;3.00;;;17.70;65.30;;;;;;5010620;28;20443;-72
2022/08/08 06:07:47;;;;;;;6.53;3.87;;;17.90;65.60;;;;;;5014926;28;20489;-73
2022/08/08 06:10:13;;;;;;;5.60;3.50;;;18.00;65.80;;;;;;5014205;28;20440;-73
2022/08/08 06:12:41;;;;;;;7.80;3.60;;;18.10;65.60;;;;;;5009714;28;20994;-73
2022/08/08 06:15:09;;;;;;;6.07;3.57;;;18.10;65.40;;;;;;5009330;28;20416;-74
2022/08/08 06:17:39;;;;;;;5.90;3.70;;;18.10;65.00;;;;;;5017435;28;20418;-73
2022/08/08 06:20:08;;;;;;;3.87;3.23;;;18.20;65.10;;;;;;5013570;28;20488;-72
2022/08/08 06:22:34;;;;;;;4.20;3.20;;;18.30;65.00;;;;;;5016820;28;20435;-72
2022/08/08 06:25:01;;;;;;;7.80;3.60;;;18.50;65.00;;;;;;4990532;28;20427;-72
2022/08/08 06:27:54;;;;;;;6.10;3.37;;;18.60;65.00;;;;;;5005468;28;20428;-72
2022/08/08 06:30:19;;;;;;;5.13;3.40;;;18.60;65.10;;;;;;5001656;28;20470;-72
2022/08/08 06:32:50;;;;;;;6.97;4.30;;;18.70;65.10;;;;;;5012237;28;20717;-72
2022/08/08 06:35:16;;;;;;;4.93;3.87;;;18.70;64.80;;;;;;4989776;28;20457;-71
2022/08/08 06:37:51;;;;;;;5.40;3.63;;;18.80;65.00;;;;;;5006852;28;20776;-71
2022/08/08 06:40:18;;;;;;;5.60;3.80;;;18.90;64.80;;;;;;5014456;28;20470;-72
2022/08/08 06:43:06;;;;;;;6.70;4.17;;;18.90;65.00;;;;;;5010175;28;20433;-71
2022/08/08 06:45:32;;;;;;;7.60;4.87;;;19.00;64.70;;;;;;5001629;28;20524;-71
2022/08/08 06:47:59;;;;;;;12.20;4.90;;;19.00;64.40;;;;;;5016125;28;20485;-72
2022/08/08 06:50:26;;;;;;;10.20;4.80;;;19.10;64.50;;;;;;5012918;28;20431;-71
2022/08/08 06:52:52;;;;;;;9.00;4.80;;;19.30;64.50;;;;;;5013496;28;20459;-72
2022/08/08 06:55:20;;;;;;;9.60;4.50;;;19.40;64.10;;;;;;5016354;28;20499;-71
2022/08/08 06:57:46;;;;;;;9.97;4.60;;;19.50;63.80;;;;;;5010156;28;20198;-73
2022/08/08 07:00:12;;;;;;;6.93;4.07;;;19.50;63.80;;;;;;5015375;28;20562;-72
2022/08/08 07:02:43;;;;;;;10.10;4.87;;;19.60;64.20;;;;;;4995011;28;20779;-72
2022/08/08 07:05:14;;;;;;;10.33;4.73;;;19.70;64.20;;;;;;5013103;28;20430;-72
2022/08/08 07:07:51;;;;;;;8.13;4.70;;;19.80;64.20;;;;;;5016803;28;20421;-72
2022/08/08 07:10:20;;;;;;;13.10;4.43;;;19.90;64.40;;;;;;5009323;28;20422;-71
2022/08/08 07:13:16;;;;;;;7.10;4.80;;;19.90;64.50;;;;;;5013778;28;21097;-72
2022/08/08 07:15:50;;;;;;;6.30;5.10;;;20.00;64.20;;;;;;4928185;29;20543;-72
2022/08/08 07:18:45;;;;;;;6.77;4.33;;;20.10;64.10;;;;;;4939330;29;20848;-72
2022/08/08 07:21:16;;;;;;;9.47;5.00;;;20.20;64.10;;;;;;4932355;29;20833;-71
2022/08/08 07:23:54;;;;;;;7.67;4.80;;;20.30;63.80;;;;;;4937713;29;20423;-71
2022/08/08 07:26:21;;;;;;;9.13;4.63;;;20.40;63.70;;;;;;4930390;29;20992;-73
2022/08/08 07:28:47;;;;;;;8.93;4.43;;;20.50;63.50;;;;;;4939183;29;20678;-73
2022/08/08 07:31:14;;;;;;;10.10;4.90;;;20.70;63.10;;;;;;4939199;29;20523;-72
2022/08/08 07:33:41;;;;;;;7.47;4.97;;;20.80;62.90;;;;;;4932004;29;20970;-72
2022/08/08 07:36:08;;;;;;;9.60;5.20;;;20.80;62.90;;;;;;4932167;29;20475;-71
2022/08/08 07:38:36;;;;;;;9.13;5.20;;;20.80;63.10;;;;;;4928297;29;20539;-73
2022/08/08 07:41:02;;;;;;;7.20;5.50;;;20.80;62.90;;;;;;4940268;29;20473;-72
2022/08/08 07:43:31;;;;;;;8.93;5.43;;;20.90;63.10;;;;;;4929899;29;20430;-71
2022/08/08 07:45:57;;;;;;;11.23;5.50;;;21.00;62.80;;;;;;4931523;29;20474;-72
2022/08/08 07:48:23;;;;;;;11.90;5.37;;;21.10;62.80;;;;;;4928973;29;20442;-71
2022/08/08 07:50:52;;;;;;;11.43;5.87;;;21.20;62.30;;;;;;4942210;29;20584;-72
2022/08/08 07:53:33;;;;;;;10.63;5.30;;;21.30;62.00;;;;;;5011561;28;20192;-71
2022/08/08 07:56:01;;;;;;;12.53;5.80;;;21.20;62.20;;;;;;5010286;28;20795;-73
2022/08/08 07:58:30;;;;;;;8.33;5.10;;;21.30;62.30;;;;;;5015643;28;20884;-72
2022/08/08 08:01:06;;;;;;;9.30;5.80;;;21.50;62.00;;;;;;5017933;28;20562;-72
2022/08/08 08:03:40;;;;;;;8.87;5.23;;;21.60;61.60;;;;;;5014910;28;20430;-71
2022/08/08 08:06:10;;;;;;;10.30;5.07;;;21.70;61.50;;;;;;5015800;28;20454;-72
2022/08/08 08:08:41;;;;;;;9.30;5.83;;;21.80;61.30;;;;;;5018920;28;20423;-71
2022/08/08 08:11:18;;;;;;;8.03;5.10;;;21.90;61.00;;;;;;5017362;28;20897;-71
2022/08/08 08:13:51;;;;;;;11.00;5.70;;;22.00;61.00;;;;;;5012177;28;20429;-72
2022/08/08 08:16:23;;;;;;;10.17;4.50;;;22.10;60.70;;;;;;5007098;28;20503;-70
2022/08/08 08:19:00;;;;;;;6.00;4.63;;;22.20;60.60;;;;;;5018109;28;20426;-71
2022/08/08 08:21:30;;;;;;;14.20;4.80;;;22.40;60.40;;;;;;5015047;28;20466;-70
2022/08/08 08:23:55;;;;;;;8.10;4.73;;;22.60;59.90;;;;;;5008639;28;20417;-73
2022/08/08 08:26:21;;;;;;;6.10;4.60;;;22.70;59.30;;;;;;5014777;28;20461;-70
2022/08/08 08:28:47;;;;;;;7.43;4.23;;;22.80;58.00;;;;;;5001657;28;20275;-70
2022/08/08 08:31:13;;;;;;;5.13;4.70;;;22.90;57.70;;;;;;5011454;28;20268;-72
2022/08/08 08:33:39;;;;;;;6.20;3.97;;;23.00;56.90;;;;;;5011021;28;20446;-71
2022/08/08 08:36:11;;;;;;;5.83;4.60;;;23.00;56.90;;;;;;5010818;28;20456;-75
2022/08/08 08:38:37;;;;;;;4.53;4.20;;;23.10;56.80;;;;;;5007250;28;20438;-73
2022/08/08 08:41:03;;;;;;;6.73;4.40;;;23.20;57.20;;;;;;5016363;28;20470;-71
2022/08/08 08:43:30;;;;;;;6.90;4.40;;;23.40;57.00;;;;;;5013902;28;20420;-72
2022/08/08 08:45:57;;;;;;;10.87;5.40;;;23.40;56.50;;;;;;5011553;28;20554;-71
2022/08/08 08:48:23;;;;;;;10.10;4.87;;;23.50;56.00;;;;;;4993342;28;20594;-74
2022/08/08 08:50:51;;;;;;;6.57;4.90;;;23.50;56.20;;;;;;5017927;28;21008;-71
2022/08/08 08:53:17;;;;;;;8.43;5.20;;;23.50;56.40;;;;;;5006652;28;20426;-72
2022/08/08 08:55:43;;;;;;;5.30;3.87;;;23.50;56.50;;;;;;5013812;28;20540;-72
2022/08/08 08:58:44;;;;;;;6.53;5.20;;;23.60;56.40;;;;;;5022283;28;20267;-71
2022/08/08 09:01:12;;;;;;;6.70;4.37;;;23.70;56.00;;;;;;4899920;29;20474;-73
2022/08/08 09:03:42;;;;;;;7.20;5.10;;;23.70;56.00;;;;;;4915241;29;20579;-71
2022/08/08 09:06:12;;;;;;;7.70;4.40;;;23.70;55.40;;;;;;4913575;29;20860;-73
2022/08/08 09:08:41;;;;;;;4.50;4.17;;;23.80;54.40;;;;;;4913798;29;20458;-73
2022/08/08 09:11:07;;;;;;;5.90;4.60;;;23.70;55.00;;;;;;4910319;29;20429;-72
2022/08/08 09:13:35;;;;;;;5.83;5.00;;;23.80;55.00;;;;;;4912981;29;20438;-73
2022/08/08 09:16:02;;;;;;;6.43;4.50;;;23.90;54.50;;;;;;4912773;29;20543;-72
2022/08/08 09:18:31;;;;;;;4.63;4.30;;;23.80;54.00;;;;;;4914106;29;20954;-72
2022/08/08 09:21:01;;;;;;;5.00;4.20;;;23.80;53.20;;;;;;4911088;29;20507;-73
2022/08/08 09:23:29;;;;;;;9.13;4.73;;;23.80;53.40;;;;;;4911881;29;20436;-74
2022/08/08 09:26:25;;;;;;;4.97;4.43;;;24.00;52.90;;;;;;4909883;29;20453;-72
2022/08/08 09:28:52;;;;;;;4.87;4.27;;;24.00;52.20;;;;;;4911012;29;20455;-72
2022/08/08 09:31:43;;;;;;;6.60;5.00;;;24.20;52.10;;;;;;4908848;29;20436;-72
2022/08/08 09:34:10;;;;;;;7.90;4.10;;;24.20;50.60;;;;;;4908884;29;20426;-73
2022/08/08 09:36:39;;;;;;;5.60;4.37;;;24.30;51.00;;;;;;4917323;28;20466;-72
2022/08/08 09:39:05;;;;;;;5.90;4.20;;;24.30;51.60;;;;;;5007144;28;20522;-73
2022/08/08 09:41:40;;;;;;;6.90;3.90;;;24.10;51.80;;;;;;5011197;28;20920;-71
2022/08/08 09:44:25;;;;;;;5.23;4.07;;;24.20;51.70;;;;;;5014615;28;20779;-71
2022/08/08 09:46:52;;;;;;;5.17;4.30;;;24.30;51.00;;;;;;5006039;28;21082;-71
2022/08/08 09:49:19;;;;;;;8.83;4.53;;;24.40;50.90;;;;;;5018445;28;20450;-72
2022/08/08 09:51:51;;;;;;;5.40;4.10;;;24.60;50.30;;;;;;5019361;28;20475;-72
2022/08/08 09:54:21;;;;;;;5.13;3.60;;;24.80;50.20;;;;;;5006563;28;20906;-72
2022/08/08 09:56:53;;;;;;;4.37;4.00;;;25.00;47.50;;;;;;5006008;28;21010;-72
2022/08/08 09:59:28;;;;;;;8.73;3.63;;;25.00;46.90;;;;;;5010436;28;21127;-72
2022/08/08 10:01:58;;;;;;;5.77;3.80;;;25.10;45.80;;;;;;5017213;28;20656;-70
2022/08/08 10:04:25;;;;;;;3.53;3.10;;;25.20;45.30;;;;;;5012722;28;20438;-73
2022/08/08 10:06:52;;;;;;;4.03;3.13;;;25.40;44.30;;;;;;5012059;28;20463;-72
2022/08/08 10:09:32;;;;;;;7.10;3.23;;;25.50;43.50;;;;;;5007143;28;20427;-72
2022/08/08 10:12:02;;;;;;;7.40;3.60;;;25.60;42.80;;;;;;5010898;28;20420;-72
2022/08/08 10:14:32;;;;;;;4.10;3.23;;;25.80;42.60;;;;;;5013706;28;20439;-72
2022/08/08 10:16:58;;;;;;;3.80;3.40;;;26.00;42.80;;;;;;5006027;28;20455;-72
2022/08/08 10:19:36;;;;;;;3.50;3.00;;;26.10;43.20;;;;;;5018374;28;20545;-72
2022/08/08 10:22:06;;;;;;;5.00;3.83;;;26.30;42.70;;;;;;5016479;28;20224;-74
2022/08/08 10:24:33;;;;;;;4.83;3.33;;;26.50;42.60;;;;;;5019670;28;20423;-72
2022/08/08 10:27:01;;;;;;;5.30;3.90;;;26.60;42.60;;;;;;5008853;28;20481;-73
2022/08/08 10:29:50;;;;;;;6.33;4.07;;;26.10;43.50;;;;;;5000788;28;20465;-72
2022/08/08 10:35:12;;;;;;;4.60;3.87;;;26.20;45.10;;;;;;5016248;28;20951;-72
2022/08/08 10:37:51;;;;;;;4.20;3.93;;;26.10;45.40;;;;;;5014119;28;20435;-72
2022/08/08 10:40:16;;;;;;;6.00;4.80;;;26.20;45.40;;;;;;5014492;28;20467;-71
2022/08/08 10:42:43;;;;;;;8.03;4.30;;;26.30;45.30;;;;;;5016681;28;20960;-72
2022/08/08 10:45:10;;;;;;;6.70;4.40;;;26.30;45.50;;;;;;5017670;28;20193;-72
2022/08/08 10:47:36;;;;;;;5.10;4.53;;;25.70;46.10;;;;;;5012833;28;20453;-72
2022/08/08 10:50:05;;;;;;;5.83;3.80;;;25.60;46.30;;;;;;5016705;28;20522;-71
2022/08/08 10:52:39;;;;;;;7.50;4.67;;;25.80;45.10;;;;;;5014614;28;20504;-71
2022/08/08 10:55:12;;;;;;;5.43;4.03;;;26.00;44.90;;;;;;5013041;28;20434;-70
2022/08/08 10:57:40;;;;;;;4.80;4.20;;;26.00;44.60;;;;;;5016685;28;20743;-72
2022/08/08 11:00:09;;;;;;;4.40;3.10;;;26.20;43.70;;;;;;5012219;28;20970;-74
2022/08/08 11:02:35;;;;;;;3.60;3.43;;;26.60;41.90;;;;;;5009076;28;20429;-73
2022/08/08 11:05:06;;;;;;;8.23;3.50;;;26.80;40.30;;;;;;5020359;28;20431;-72
2022/08/08 11:07:34;;;;;;;4.33;3.37;;;26.80;40.30;;;;;;5019750;28;20199;-72
2022/08/08 11:10:05;;;;;;;3.37;3.17;;;27.20;39.50;;;;;;5023079;28;21025;-71
2022/08/08 11:12:32;;;;;;;3.80;3.27;;;27.20;39.00;;;;;;5017005;28;20435;-73
2022/08/08 11:14:59;;;;;;;3.83;3.67;;;27.30;39.10;;;;;;5014836;28;20431;-73
2022/08/08 11:17:30;;;;;;;8.10;3.60;;;27.70;39.00;;;;;;5007046;28;20960;-71
2022/08/08 11:19:58;;;;;;;3.50;3.30;;;27.70;38.60;;;;;;4998476;28;20520;-74
2022/08/08 11:22:30;;;;;;;4.77;4.03;;;27.40;39.20;;;;;;5018878;28;20945;-72
2022/08/08 11:25:00;;;;;;;5.03;3.43;;;27.30;39.50;;;;;;5015554;28;20429;-71
2022/08/08 11:27:30;;;;;;;4.33;3.10;;;27.00;39.80;;;;;;5007946;28;20444;-72
2022/08/08 11:29:59;;;;;;;7.43;3.50;;;26.90;39.80;;;;;;5015325;28;20477;-72
2022/08/08 11:32:32;;;;;;;4.80;3.10;;;27.00;39.00;;;;;;5019626;28;20436;-72
2022/08/08 11:35:09;;;;;;;3.07;2.90;;;27.40;38.20;;;;;;5014125;28;20936;-72
2022/08/08 11:37:36;;;;;;;4.70;2.70;;;27.80;36.00;;;;;;5010357;28;20432;-73
2022/08/08 11:40:05;;;;;;;3.63;3.47;;;28.20;35.50;;;;;;5015396;28;20983;-73
2022/08/08 11:42:31;;;;;;;3.40;3.03;;;28.60;34.10;;;;;;5017286;28;20512;-72
2022/08/08 11:44:58;;;;;;;4.60;4.10;;;28.70;32.80;;;;;;5012198;28;20422;-73
2022/08/08 11:47:24;;;;;;;3.33;2.90;;;28.50;33.70;;;;;;5008579;28;20996;-72
2022/08/08 11:50:02;;;;;;;4.10;3.13;;;29.00;33.10;;;;;;5011445;28;20938;-72
2022/08/08 11:52:30;;;;;;;5.30;3.03;;;28.90;32.70;;;;;;5018145;28;20892;-73
2022/08/08 11:54:58;;;;;;;3.10;2.80;;;29.30;32.40;;;;;;5016450;28;20442;-72
2022/08/08 11:57:28;;;;;;;4.40;3.67;;;29.10;33.20;;;;;;5015592;28;21216;-72
2022/08/08 12:00:03;;;;;;;3.80;2.90;;;29.60;32.40;;;;;;5016017;28;20480;-73
2022/08/08 12:02:31;;;;;;;7.13;3.40;;;29.30;32.50;;;;;;5011374;28;20420;-73
2022/08/08 12:05:01;;;;;;;4.33;3.20;;;29.40;32.70;;;;;;5021029;28;20910;-72
2022/08/08 12:07:27;;;;;;;4.23;3.97;;;29.20;32.80;;;;;;5012523;28;20946;-72
2022/08/08 12:09:55;;;;;;;4.30;3.40;;;29.20;32.50;;;;;;5019100;28;21315;-73
2022/08/08 12:12:25;;;;;;;3.10;2.90;;;29.00;32.70;;;;;;5015366;28;20423;-71
2022/08/08 12:15:01;;;;;;;4.23;3.30;;;28.80;32.40;;;;;;5013402;28;20917;-71
2022/08/08 12:17:34;;;;;;;3.73;3.27;;;28.20;33.50;;;;;;5013164;28;20473;-73
2022/08/08 12:20:03;;;;;;;2.80;2.60;;;28.40;33.70;;;;;;5013858;28;20543;-72
2022/08/08 12:22:30;;;;;;;3.07;2.93;;;28.80;32.80;;;;;;5014227;28;20506;-73
2022/08/08 12:24:56;;;;;;;4.13;3.20;;;28.90;32.70;;;;;;5008470;28;20486;-71
2022/08/08 12:27:23;;;;;;;3.93;2.70;;;28.90;32.90;;;;;;5013559;28;20447;-73
2022/08/08 12:29:56;;;;;;;4.10;2.97;;;29.20;32.50;;;;;;5015476;28;20449;-73
2022/08/08 12:32:22;;;;;;;4.73;3.23;;;29.40;32.10;;;;;;5019988;28;20432;-72
2022/08/08 12:34:58;;;;;;;5.03;3.10;;;29.80;31.90;;;;;;5014005;28;20540;-73
2022/08/08 12:37:27;;;;;;;7.17;2.90;;;30.10;31.20;;;;;;5008343;28;20454;-71
2022/08/08 12:39:54;;;;;;;6.40;2.87;;;30.00;30.70;;;;;;5013329;28;20588;-72
2022/08/08 12:42:19;;;;;;;5.73;3.00;;;30.10;31.50;;;;;;5010832;28;20424;-73
2022/08/08 12:44:45;;;;;;;8.03;4.03;;;30.20;30.70;;;;;;5008142;28;20452;-73
2022/08/08 12:47:12;;;;;;;3.83;3.20;;;30.00;30.70;;;;;;4999489;28;20202;-72
2022/08/08 12:49:38;;;;;;;3.93;3.50;;;30.20;30.80;;;;;;5017384;28;20432;-72
2022/08/08 12:52:06;;;;;;;4.63;3.67;;;29.50;31.60;;;;;;5009789;28;20507;-72
2022/08/08 12:54:38;;;;;;;4.00;3.60;;;28.90;33.10;;;;;;4998180;28;20433;-71
2022/08/08 12:57:20;;;;;;;4.37;3.07;;;28.50;33.70;;;;;;5008056;28;20555;-72
2022/08/08 12:59:51;;;;;;;3.57;3.40;;;28.80;33.60;;;;;;5009334;28;20468;-72
2022/08/08 13:02:25;;;;;;;3.23;3.03;;;28.70;33.60;;;;;;5013374;28;20425;-72
2022/08/08 13:04:52;;;;;;;5.63;3.33;;;28.80;33.10;;;;;;5011918;28;20429;-72
2022/08/08 13:07:18;;;;;;;4.80;3.30;;;29.10;32.90;;;;;;5011569;28;20479;-73
2022/08/08 13:09:57;;;;;;;3.23;3.03;;;29.20;32.40;;;;;;5010488;28;21229;-72
2022/08/08 13:12:26;;;;;;;4.40;3.30;;;29.20;32.70;;;;;;5013336;28;20619;-72
2022/08/08 13:14:54;;;;;;;4.37;3.30;;;29.50;31.70;;;;;;5015448;28;20424;-71
2022/08/08 13:17:22;;;;;;;4.40;2.90;;;30.00;30.90;;;;;;5005814;28;20455;-71
2022/08/08 13:19:48;;;;;;;6.10;3.63;;;29.70;31.10;;;;;;5013183;28;20468;-73
2022/08/08 13:22:17;;;;;;;4.77;2.80;;;29.40;31.70;;;;;;5009937;28;20428;-73
2022/08/08 13:24:43;;;;;;;3.60;3.00;;;30.30;31.30;;;;;;5013705;28;20192;-72